Time;durP1;ratioP1;P1;durP2;ratioP2;P2;SDS_P1;SDS_P2;PMS_P1;PMS_P2;Temp;Humidity;BMP_temperature;BMP_pressure;BME280_temperature;BME280_humidity;BME280_pressure;Samples;Min_cycle;Max_cycle;Signal;HPM_P1;HPM_P2
2021/11/13 00:00:40;;;;;;;24.55;15.82;;;;;;;3.61;96.50;100590.44;5041789;28;20059;-80
2021/11/13 00:03:11;;;;;;;23.02;14.43;;;;;;;3.61;96.82;100598.19;5029534;28;20135;-81
2021/11/13 00:05:38;;;;;;;29.52;16.23;;;;;;;3.61;96.80;100599.09;5050285;28;20044;-81
2021/11/13 00:08:05;;;;;;;26.85;15.35;;;;;;;3.62;97.10;100592.19;5029118;28;20048;-83
2021/11/13 00:10:35;;;;;;;23.15;14.55;;;;;;;3.63;96.94;100605.16;5027664;28;20051;-78
2021/11/13 00:13:08;;;;;;;22.23;14.30;;;;;;;3.66;96.59;100606.06;5027533;28;20395;-79
2021/11/13 00:15:37;;;;;;;25.77;15.02;;;;;;;3.67;96.74;100603.50;5044062;28;20052;-79
2021/11/13 00:18:04;;;;;;;22.65;14.15;;;;;;;3.70;96.66;100608.72;5045865;28;20438;-81
2021/11/13 00:20:30;;;;;;;27.65;14.10;;;;;;;3.69;96.13;100594.06;5040813;28;20509;-79
2021/11/13 00:23:01;;;;;;;22.08;13.88;;;;;;;3.70;96.42;100603.53;5042583;28;20056;-81
2021/11/13 00:25:50;;;;;;;25.23;15.52;;;;;;;3.71;96.53;100607.03;5042588;28;20054;-80
2021/11/13 00:28:28;;;;;;;25.10;15.23;;;;;;;3.70;96.64;100615.63;5050375;28;20076;-83
2021/11/13 00:30:55;;;;;;;24.45;15.45;;;;;;;3.71;96.92;100614.78;5013900;28;20052;-82
2021/11/13 00:33:24;;;;;;;25.85;15.05;;;;;;;3.70;96.95;100603.53;5038735;28;20734;-80
2021/11/13 00:35:51;;;;;;;21.92;13.68;;;;;;;3.71;97.24;100600.13;5026649;28;20097;-80
2021/11/13 00:38:20;;;;;;;29.02;14.73;;;;;;;3.69;97.10;100588.88;5040627;28;20067;-80
2021/11/13 00:44:37;;;;;;;26.58;15.30;;;;;;;3.68;97.38;100575.88;5004270;28;20118;-80
2021/11/13 00:47:06;;;;;;;24.75;14.35;;;;;;;3.68;97.44;100571.59;5038471;28;20075;-87
2021/11/13 00:49:36;;;;;;;22.65;14.43;;;;;;;3.67;97.34;100566.41;5038396;28;20044;-80
2021/11/13 00:52:07;;;;;;;24.40;14.60;;;;;;;3.67;97.40;100556.91;5027081;28;20068;-80
2021/11/13 00:54:34;;;;;;;22.63;13.43;;;;;;;3.69;96.87;100559.50;5041828;28;20041;-82
2021/11/13 00:57:08;;;;;;;20.88;14.30;;;;;;;3.68;96.96;100553.47;5037110;28;20509;-78
2021/11/13 00:59:47;;;;;;;20.83;13.23;;;;;;;3.70;96.98;100562.13;5042799;28;20134;-80
2021/11/13 01:02:13;;;;;;;23.48;12.20;;;;;;;3.72;96.71;100563.03;5034913;28;20077;-82
2021/11/13 01:04:43;;;;;;;22.48;13.68;;;;;;;3.71;97.39;100568.19;5040099;28;20057;-80
2021/11/13 01:07:10;;;;;;;18.80;12.77;;;;;;;3.73;96.88;100563.91;5022328;28;20124;-79
2021/11/13 01:09:39;;;;;;;21.85;13.70;;;;;;;3.71;97.06;100563.88;5037526;28;20043;-81
2021/11/13 01:12:14;;;;;;;23.85;14.07;;;;;;;3.71;96.86;100557.84;5040651;28;20126;-79
2021/11/13 01:14:41;;;;;;;21.13;12.00;;;;;;;3.71;97.07;100548.34;5023737;28;20129;-83
2021/11/13 01:17:16;;;;;;;18.83;12.52;;;;;;;3.72;96.74;100546.66;5028737;28;20049;-79
2021/11/13 01:19:49;;;;;;;20.60;13.82;;;;;;;3.72;96.37;100550.09;5065606;28;20047;-79
2021/11/13 01:22:19;;;;;;;21.23;12.68;;;;;;;3.74;96.58;100557.88;5047759;28;20059;-79
2021/11/13 01:24:47;;;;;;;21.38;11.65;;;;;;;3.80;96.15;100568.34;5052120;28;20590;-80
2021/11/13 01:27:15;;;;;;;18.38;12.30;;;;;;;3.88;96.15;100584.03;5046648;28;20044;-79
2021/11/13 01:29:43;;;;;;;18.92;12.07;;;;;;;3.94;95.36;100586.72;5061319;28;20506;-83
2021/11/13 01:32:10;;;;;;;21.50;11.00;;;;;;;3.96;94.94;100578.13;5042444;28;20116;-84
2021/11/13 01:34:39;;;;;;;20.90;12.43;;;;;;;3.94;94.86;100579.81;5024121;28;20526;-86
2021/11/13 01:37:08;;;;;;;17.15;10.93;;;;;;;3.93;94.70;100579.78;5045994;28;20386;-81
2021/11/13 01:39:38;;;;;;;22.05;11.05;;;;;;;3.91;94.58;100568.53;5045794;28;20048;-80
2021/11/13 01:42:10;;;;;;;16.48;10.55;;;;;;;3.92;94.51;100572.88;5031812;28;20099;-78
2021/11/13 01:44:37;;;;;;;17.13;10.60;;;;;;;3.98;94.20;100585.94;5050882;28;20129;-81
2021/11/13 01:47:07;;;;;;;15.48;9.95;;;;;;;4.03;93.89;100593.75;5048499;28;20066;-81
2021/11/13 01:49:37;;;;;;;17.10;10.93;;;;;;;4.08;93.57;100594.69;5050484;28;20043;-79
2021/11/13 01:52:17;;;;;;;20.15;11.63;;;;;;;4.13;93.70;100582.69;5055790;28;20187;-80
2021/11/13 01:54:47;;;;;;;14.90;10.18;;;;;;;4.20;92.93;100576.78;5045983;28;20041;-79
2021/11/13 01:57:20;;;;;;;14.05;10.23;;;;;;;4.25;92.87;100575.13;5045639;28;20120;-80
2021/11/13 01:59:53;;;;;;;15.75;9.70;;;;;;;4.33;93.01;100576.97;5061963;28;20339;-79
2021/11/13 02:02:20;;;;;;;14.27;10.60;;;;;;;4.38;91.80;100558.06;5032250;28;20052;-83
2021/11/13 02:04:47;;;;;;;13.50;9.50;;;;;;;4.41;91.74;100552.06;5050458;28;20126;-82
2021/11/13 02:07:14;;;;;;;16.77;10.40;;;;;;;4.44;91.26;100554.69;5047170;28;20049;-78
2021/11/13 02:09:48;;;;;;;16.30;9.35;;;;;;;4.45;91.61;100552.09;5050541;28;20915;-83
2021/11/13 02:12:16;;;;;;;12.50;8.63;;;;;;;4.47;91.62;100552.13;5050678;28;20068;-79
2021/11/13 02:14:44;;;;;;;14.82;9.25;;;;;;;4.48;90.96;100559.06;5033351;28;20053;-81
2021/11/13 02:17:13;;;;;;;17.60;10.80;;;;;;;4.50;91.32;100553.88;5050307;28;20139;-81
2021/11/13 02:19:40;;;;;;;12.65;10.02;;;;;;;4.51;90.90;100550.44;5047704;28;20055;-79
2021/11/13 02:22:07;;;;;;;16.90;10.18;;;;;;;4.52;90.67;100544.41;5054208;28;20055;-79
2021/11/13 02:24:36;;;;;;;11.60;8.70;;;;;;;4.51;90.70;100545.25;5048282;28;20048;-80
2021/11/13 02:27:03;;;;;;;13.27;8.63;;;;;;;4.51;90.53;100542.66;5048159;28;20105;-78
2021/11/13 02:29:32;;;;;;;12.40;9.15;;;;;;;4.51;90.66;100545.25;5042786;28;20559;-79
2021/11/13 02:32:06;;;;;;;13.23;9.05;;;;;;;4.54;90.62;100556.56;5051692;28;20407;-79
2021/11/13 02:34:33;;;;;;;;;;;;;;;4.54;90.38;100543.59;5065663;28;20056;-80
2021/11/13 02:37:01;;;;;;;13.75;8.98;;;;;;;4.58;90.39;100540.19;5046626;28;20070;-79
2021/11/13 02:39:28;;;;;;;11.95;7.55;;;;;;;4.59;90.08;100531.56;5030952;28;20045;-78
2021/11/13 02:41:54;;;;;;;13.20;8.90;;;;;;;4.58;90.27;100549.69;5054252;28;20044;-83
2021/11/13 02:44:22;;;;;;;14.05;8.25;;;;;;;4.62;90.33;100546.28;5056047;28;20059;-85
2021/11/13 02:46:54;;;;;;;12.40;8.60;;;;;;;4.66;90.43;100540.28;5033535;28;20052;-78
2021/11/13 02:49:24;;;;;;;14.55;7.85;;;;;;;4.70;90.19;100546.41;5032378;28;20474;-78
2021/11/13 02:52:08;;;;;;;12.57;8.65;;;;;;;4.71;90.09;100550.75;5047206;28;20041;-82
2021/11/13 02:54:35;;;;;;;13.38;7.88;;;;;;;4.73;90.40;100531.75;5065400;28;20060;-78
2021/11/13 02:57:01;;;;;;;12.88;8.10;;;;;;;4.73;90.49;100547.31;5064453;28;20045;-80
2021/11/13 02:59:28;;;;;;;13.05;9.20;;;;;;;4.73;90.44;100544.72;5049010;28;20402;-78
2021/11/13 03:01:54;;;;;;;15.38;8.18;;;;;;;4.74;90.43;100546.44;5050833;28;20060;-82
2021/11/13 03:04:31;;;;;;;14.02;9.05;;;;;;;4.74;90.46;100543.00;5057788;28;20055;-81
2021/11/13 03:06:57;;;;;;;14.35;9.25;;;;;;;4.76;90.93;100547.34;5053640;28;20048;-78
2021/11/13 03:09:30;;;;;;;13.32;9.23;;;;;;;4.76;90.48;100529.19;5048733;28;20056;-81
2021/11/13 03:11:56;;;;;;;13.45;9.02;;;;;;;4.74;90.93;100528.28;5050902;28;20091;-83
2021/11/13 03:14:24;;;;;;;13.27;8.93;;;;;;;4.72;90.95;100529.13;5065275;28;20048;-79
2021/11/13 03:16:52;;;;;;;15.88;9.50;;;;;;;4.64;91.65;100516.94;5050033;28;20122;-83
2021/11/13 03:19:19;;;;;;;13.15;8.95;;;;;;;4.62;91.63;100520.38;5050751;28;20052;-80
2021/11/13 03:21:46;;;;;;;16.80;9.63;;;;;;;4.61;91.74;100524.66;5049031;28;20032;-82
2021/11/13 03:24:15;;;;;;;13.23;8.82;;;;;;;4.61;92.00;100522.06;5045989;28;20185;-80
2021/11/13 03:26:44;;;;;;;15.60;9.10;;;;;;;4.60;91.42;100522.06;5045864;28;20435;-81
2021/11/13 03:29:41;;;;;;;15.18;9.80;;;;;;;4.55;91.89;100510.75;5050117;28;20043;-78
2021/11/13 03:34:49;;;;;;;15.40;9.48;;;;;;;4.52;92.36;100503.81;5042657;28;20510;-80
2021/11/13 03:37:15;;;;;;;14.63;8.88;;;;;;;4.53;92.11;100508.16;5044674;28;20113;-78
2021/11/13 03:39:44;;;;;;;14.50;10.30;;;;;;;4.52;92.14;100497.75;5028151;28;20055;-81
2021/11/13 03:42:14;;;;;;;12.75;9.02;;;;;;;4.50;92.45;100505.53;5047897;28;20487;-80
2021/11/13 03:44:41;;;;;;;15.43;9.25;;;;;;;4.44;92.53;100508.88;5045723;28;20041;-78
2021/11/13 03:47:10;;;;;;;14.07;9.90;;;;;;;4.38;92.54;100519.19;5051910;28;20132;-79
2021/11/13 03:49:37;;;;;;;13.68;9.52;;;;;;;4.31;92.86;100514.75;5044087;28;20127;-84
2021/11/13 03:52:07;;;;;;;15.40;9.20;;;;;;;4.23;93.68;100516.38;5043457;28;20040;-77
2021/11/13 03:54:36;;;;;;;16.05;9.52;;;;;;;4.13;93.80;100521.41;5063628;28;20041;-79
2021/11/13 03:57:05;;;;;;;12.48;8.45;;;;;;;4.08;94.23;100524.75;5039751;28;20773;-78
2021/11/13 03:59:33;;;;;;;13.88;9.77;;;;;;;4.02;94.50;100525.56;5030799;28;20052;-81
2021/11/13 04:02:04;;;;;;;12.88;8.30;;;;;;;3.90;94.56;100513.28;5029141;28;20051;-78
2021/11/13 04:04:31;;;;;;;15.75;9.25;;;;;;;3.79;95.48;100515.72;5030999;28;20605;-81
2021/11/13 04:07:00;;;;;;;15.07;9.35;;;;;;;3.72;96.15;100513.84;5032819;28;20538;-81
2021/11/13 04:09:26;;;;;;;14.00;9.32;;;;;;;3.67;96.52;100519.81;5046424;28;20525;-80
2021/11/13 04:11:53;;;;;;;16.27;10.18;;;;;;;3.61;96.95;100523.13;5063647;28;20158;-80
2021/11/13 04:14:21;;;;;;;20.77;10.80;;;;;;;3.56;97.47;100523.06;5047416;28;20048;-82
2021/11/13 04:16:51;;;;;;;15.45;10.02;;;;;;;3.53;97.11;100522.13;5026867;28;20519;-80
2021/11/13 04:19:21;;;;;;;13.15;8.98;;;;;;;3.53;97.80;100519.56;5063693;28;20045;-81
2021/11/13 04:21:47;;;;;;;14.30;10.15;;;;;;;3.56;98.04;100515.31;5048161;28;20071;-79
2021/11/13 04:24:14;;;;;;;16.23;10.07;;;;;;;3.61;97.95;100502.44;5027411;28;20383;-79
2021/11/13 04:26:43;;;;;;;15.32;9.55;;;;;;;3.66;97.36;100497.34;5028547;28;20045;-81
2021/11/13 04:29:09;;;;;;;16.15;10.63;;;;;;;3.73;97.08;100496.59;5045850;28;20632;-79
2021/11/13 04:31:36;;;;;;;15.15;9.32;;;;;;;3.80;96.79;100498.44;5049203;28;20049;-83
2021/11/13 04:34:07;;;;;;;16.02;10.18;;;;;;;3.85;96.00;100506.28;5042647;28;20151;-82
2021/11/13 04:36:38;;;;;;;14.20;9.35;;;;;;;3.88;95.73;100502.00;5045138;28;20048;-79
2021/11/13 04:39:07;;;;;;;14.60;9.50;;;;;;;3.94;95.56;100503.84;5045744;28;20048;-81
2021/11/13 04:41:36;;;;;;;13.93;9.43;;;;;;;3.95;95.43;100506.47;5043631;28;20036;-83
2021/11/13 04:44:03;;;;;;;18.52;10.40;;;;;;;3.96;94.93;100508.22;5069268;28;20044;-78
2021/11/13 04:46:30;;;;;;;17.60;8.98;;;;;;;3.97;95.11;100522.88;5039841;28;20041;-78
2021/11/13 04:48:59;;;;;;;13.18;8.68;;;;;;;3.96;94.93;100526.34;5056094;28;20060;-87
2021/11/13 04:51:26;;;;;;;13.88;9.20;;;;;;;4.02;94.48;100540.22;5060037;28;20052;-82
2021/11/13 04:53:53;;;;;;;14.82;9.77;;;;;;;4.05;94.50;100546.31;5041087;28;20049;-84
2021/11/13 04:56:19;;;;;;;14.27;9.00;;;;;;;4.09;94.24;100545.53;5044294;28;20040;-82
2021/11/13 04:58:46;;;;;;;14.40;9.85;;;;;;;4.11;93.86;100551.59;5048640;28;20024;-82
2021/11/13 05:01:13;;;;;;;16.85;9.60;;;;;;;4.14;94.07;100548.19;5028175;28;20060;-78
2021/11/13 05:03:40;;;;;;;15.35;9.85;;;;;;;4.18;93.56;100547.38;5062829;28;20033;-78
2021/11/13 05:06:06;;;;;;;20.05;10.57;;;;;;;4.22;93.44;100545.72;5050236;28;20497;-82
2021/11/13 05:08:33;;;;;;;15.45;9.10;;;;;;;4.22;93.35;100541.38;5044477;28;20055;-80
2021/11/13 05:10:59;;;;;;;16.38;9.98;;;;;;;4.21;93.53;100536.19;5044319;28;20102;-79
2021/11/13 05:13:26;;;;;;;15.63;9.13;;;;;;;4.18;93.26;100526.66;5065598;28;20485;-79
2021/11/13 05:15:53;;;;;;;16.65;9.77;;;;;;;4.18;93.70;100528.38;5035929;28;20492;-83
2021/11/13 05:18:24;;;;;;;16.73;9.82;;;;;;;4.16;93.62;100530.06;5045162;28;20098;-79
2021/11/13 05:20:57;;;;;;;13.60;7.97;;;;;;;4.19;93.78;100524.94;5031174;28;20056;-81
2021/11/13 05:23:24;;;;;;;15.23;10.27;;;;;;;4.20;93.75;100526.66;5063886;28;20043;-82
2021/11/13 05:25:51;;;;;;;13.30;8.75;;;;;;;4.23;93.62;100527.59;5032605;28;20040;-81
2021/11/13 05:28:18;;;;;;;14.10;8.77;;;;;;;4.30;93.64;100525.97;5044791;28;20487;-80
2021/11/13 05:30:54;;;;;;;;;;;;;;;;;;;;;
2021/11/13 05:33:21;;;;;;;13.60;9.02;;;;;;;4.32;93.13;100519.09;5048561;28;20044;-79
2021/11/13 05:35:48;;;;;;;13.80;8.98;;;;;;;4.32;93.27;100516.50;5034889;28;20127;-80
2021/11/13 05:38:17;;;;;;;13.30;9.20;;;;;;;4.36;92.79;100512.25;5046487;28;20122;-79
2021/11/13 05:40:43;;;;;;;12.13;8.57;;;;;;;4.38;92.89;100529.56;5046319;28;20040;-83
2021/11/13 05:43:10;;;;;;;13.20;8.07;;;;;;;4.42;93.44;100525.25;5064555;28;20123;-77
2021/11/13 05:45:38;;;;;;;13.70;8.40;;;;;;;4.45;93.58;100531.38;5044869;28;20049;-83
2021/11/13 05:48:06;;;;;;;12.52;8.32;;;;;;;4.47;93.29;100539.16;5049222;28;20082;-80
2021/11/13 05:50:35;;;;;;;11.73;8.00;;;;;;;4.50;93.72;100543.50;5046410;28;20126;-78
2021/11/13 05:53:05;;;;;;;12.05;9.48;;;;;;;4.51;93.59;100543.56;5044003;28;20149;-84
2021/11/13 05:55:31;;;;;;;13.90;8.25;;;;;;;4.46;94.11;100527.94;5044854;28;20045;-79
2021/11/13 05:57:58;;;;;;;14.57;9.15;;;;;;;4.44;94.43;100526.16;5035374;28;20041;-82
2021/11/13 06:00:27;;;;;;;16.50;8.75;;;;;;;4.44;94.76;100532.22;5043947;28;20048;-81
2021/11/13 06:02:57;;;;;;;11.77;8.02;;;;;;;4.44;94.64;100539.97;5035339;28;20633;-86
2021/11/13 06:05:26;;;;;;;12.18;7.82;;;;;;;4.45;94.83;100540.88;5050635;28;20139;-81
2021/11/13 06:07:59;;;;;;;12.85;9.52;;;;;;;4.46;95.11;100542.63;5036147;28;20048;-80
2021/11/13 06:10:25;;;;;;;12.57;9.02;;;;;;;4.44;95.35;100539.97;5048665;28;20053;-79
2021/11/13 06:12:52;;;;;;;14.07;9.27;;;;;;;4.44;95.94;100547.75;5054558;28;20132;-81
2021/11/13 06:15:19;;;;;;;12.35;7.97;;;;;;;4.44;95.86;100533.94;5050530;28;20063;-82
2021/11/13 06:17:48;;;;;;;14.32;9.15;;;;;;;4.40;96.52;100539.94;5067364;28;20074;-80
2021/11/13 06:20:16;;;;;;;15.15;9.77;;;;;;;4.34;96.87;100547.63;5064740;28;20032;-84
2021/11/13 06:22:44;;;;;;;17.13;9.30;;;;;;;4.29;96.79;100551.00;5067943;28;20047;-80
2021/11/13 06:25:13;;;;;;;13.77;10.45;;;;;;;4.29;97.60;100557.94;5065274;28;20036;-80
2021/11/13 06:27:44;;;;;;;18.15;11.02;;;;;;;4.25;98.76;100557.00;5064936;28;20341;-79
2021/11/13 06:30:15;;;;;;;14.95;10.45;;;;;;;4.24;99.11;100556.97;5077527;28;20045;-79
2021/11/13 06:32:50;;;;;;;15.07;10.07;;;;;;;4.17;100.00;100557.72;5063525;28;20044;-79
2021/11/13 06:35:17;;;;;;;17.50;11.23;;;;;;;4.08;100.00;100563.63;5066298;28;20593;-82
2021/11/13 06:37:51;;;;;;;17.58;10.57;;;;;;;3.97;100.00;100561.72;5083153;28;20086;-80
2021/11/13 06:40:27;;;;;;;14.18;9.75;;;;;;;3.91;100.00;100564.22;5077260;28;20545;-82
2021/11/13 06:42:54;;;;;;;17.05;10.43;;;;;;;3.89;100.00;100565.06;5058616;28;20047;-82
2021/11/13 06:45:21;;;;;;;19.05;11.30;;;;;;;3.81;100.00;100565.78;5053237;28;20131;-81
2021/11/13 06:47:52;;;;;;;18.00;10.52;;;;;;;3.80;100.00;100573.53;5056517;28;20051;-80
2021/11/13 06:50:19;;;;;;;20.02;11.07;;;;;;;3.78;100.00;100572.63;5053661;28;20043;-83
2021/11/13 06:52:52;;;;;;;13.40;10.05;;;;;;;3.78;100.00;100577.78;5050823;28;20866;-80
2021/11/13 06:55:20;;;;;;;16.98;10.98;;;;;;;3.81;100.00;100580.47;5035765;28;20076;-82
2021/11/13 06:57:46;;;;;;;18.70;11.75;;;;;;;3.84;100.00;100582.22;5052049;28;20060;-78
2021/11/13 07:00:18;;;;;;;15.10;10.85;;;;;;;3.83;100.00;100581.34;5058382;28;20902;-78
2021/11/13 07:02:52;;;;;;;17.13;10.27;;;;;;;3.83;100.00;100588.25;5054003;28;20061;-80
2021/11/13 07:05:23;;;;;;;20.00;12.43;;;;;;;3.84;100.00;100590.00;5048613;28;20086;-82
2021/11/13 07:07:54;;;;;;;13.25;9.32;;;;;;;3.83;100.00;100594.28;5047162;28;20151;-79
2021/11/13 07:10:25;;;;;;;20.45;11.63;;;;;;;3.84;100.00;100595.19;5051010;28;20104;-81
2021/11/13 07:12:52;;;;;;;23.35;13.38;;;;;;;3.80;100.00;100597.69;5052218;28;20044;-80
2021/11/13 07:15:24;;;;;;;18.83;12.45;;;;;;;3.80;100.00;100600.28;5049308;28;20054;-80
2021/11/13 07:18:04;;;;;;;18.23;11.93;;;;;;;3.80;100.00;100597.69;5035709;28;20060;-80
2021/11/13 07:20:33;;;;;;;18.77;10.30;;;;;;;3.83;100.00;100596.88;5052730;28;20064;-79
2021/11/13 07:23:01;;;;;;;20.42;12.98;;;;;;;3.79;100.00;100588.22;5050129;28;20793;-81
2021/11/13 07:25:34;;;;;;;16.77;11.35;;;;;;;3.81;100.00;100596.84;5050573;28;20032;-84
2021/11/13 07:28:07;;;;;;;17.45;10.73;;;;;;;3.83;100.00;100598.59;5063638;28;20063;-79
2021/11/13 07:30:40;;;;;;;18.30;10.98;;;;;;;3.86;100.00;100590.88;5050326;28;20044;-81
2021/11/13 07:33:10;;;;;;;23.50;11.93;;;;;;;3.87;100.00;100600.41;5054142;28;20421;-82
2021/11/13 07:35:50;;;;;;;20.88;11.60;;;;;;;3.89;100.00;100598.72;5047156;28;20040;-81
2021/11/13 07:38:19;;;;;;;22.50;12.45;;;;;;;3.90;100.00;100606.50;5061755;28;20048;-79
2021/11/13 07:40:49;;;;;;;20.35;11.95;;;;;;;3.94;100.00;100612.63;5030196;28;20048;-83
2021/11/13 07:46:15;;;;;;;21.70;11.30;;;;;;;4.02;100.00;100615.34;5056879;28;20075;-83
2021/11/13 07:48:47;;;;;;;19.60;11.38;;;;;;;4.03;100.00;100614.47;5049806;28;20044;-79
2021/11/13 07:51:20;;;;;;;25.48;11.77;;;;;;;4.03;100.00;100614.47;5048565;28;20089;-79
2021/11/13 07:53:54;;;;;;;20.90;12.18;;;;;;;3.98;100.00;100623.03;5051124;28;20060;-79
2021/11/13 07:56:20;;;;;;;22.90;12.38;;;;;;;3.98;100.00;100630.81;5043669;28;20728;-78
2021/11/13 07:58:47;;;;;;;17.33;11.32;;;;;;;4.00;100.00;100619.63;5045918;28;20047;-80
2021/11/13 08:01:14;;;;;;;20.38;11.80;;;;;;;4.00;100.00;100624.78;5031266;28;20071;-86
2021/11/13 08:03:43;;;;;;;19.95;11.68;;;;;;;3.99;100.00;100621.34;5047408;28;20040;-80
2021/11/13 08:06:15;;;;;;;15.73;9.95;;;;;;;4.01;100.00;100619.63;5047394;28;20071;-83
2021/11/13 08:08:45;;;;;;;16.88;10.48;;;;;;;3.99;100.00;100621.34;5046912;28;20043;-79
2021/11/13 08:11:13;;;;;;;16.35;10.95;;;;;;;4.01;100.00;100627.41;5051492;28;20048;-84
2021/11/13 08:13:42;;;;;;;17.60;10.73;;;;;;;4.04;100.00;100626.59;5046341;28;20467;-81
2021/11/13 08:16:11;;;;;;;16.63;11.63;;;;;;;4.01;100.00;100626.56;5045832;28;20557;-81
2021/11/13 08:18:42;;;;;;;17.77;11.40;;;;;;;4.05;100.00;100629.19;5052167;28;20102;-79
2021/11/13 08:21:11;;;;;;;18.33;11.18;;;;;;;4.11;100.00;100625.88;5048253;28;20051;-79
2021/11/13 08:23:40;;;;;;;16.95;11.63;;;;;;;4.18;100.00;100625.09;5045199;28;20040;-85
2021/11/13 08:26:06;;;;;;;21.48;11.70;;;;;;;4.25;100.00;100616.59;5052306;28;20056;-85
2021/11/13 08:28:36;;;;;;;17.92;10.98;;;;;;;4.32;100.00;100622.75;5042625;28;20051;-81
2021/11/13 08:31:05;;;;;;;19.48;11.65;;;;;;;4.40;100.00;100630.66;5039843;28;20045;-78
2021/11/13 08:33:35;;;;;;;18.40;10.65;;;;;;;4.51;100.00;100629.09;5033128;28;20113;-77
2021/11/13 08:36:01;;;;;;;17.75;10.52;;;;;;;4.60;100.00;100634.44;5031463;28;20072;-79
2021/11/13 08:38:28;;;;;;;16.92;10.43;;;;;;;4.69;100.00;100625.88;5025930;28;20060;-81
2021/11/13 08:40:59;;;;;;;19.38;10.90;;;;;;;4.76;100.00;100627.75;5064166;28;20033;-80
2021/11/13 08:43:25;;;;;;;18.23;11.55;;;;;;;4.79;100.00;100632.97;5043340;28;20060;-83
2021/11/13 08:45:53;;;;;;;17.67;10.45;;;;;;;4.82;100.00;100633.88;5044779;28;20049;-79
2021/11/13 08:48:22;;;;;;;20.00;10.95;;;;;;;4.85;100.00;100639.09;5039566;28;20116;-78
2021/11/13 08:50:50;;;;;;;16.17;9.60;;;;;;;4.83;100.00;100633.03;5046649;28;20048;-77
2021/11/13 08:53:17;;;;;;;14.82;9.98;;;;;;;4.82;100.00;100636.47;5044343;28;20061;-80
2021/11/13 08:55:45;;;;;;;15.35;10.25;;;;;;;4.78;100.00;100635.53;5045796;28;20164;-78
2021/11/13 08:58:13;;;;;;;15.57;10.77;;;;;;;4.77;100.00;100642.47;5018570;28;20558;-82
2021/11/13 09:00:56;;;;;;;14.25;9.85;;;;;;;4.79;100.00;100632.97;5030482;28;20546;-79
2021/11/13 09:03:38;;;;;;;18.03;11.47;;;;;;;4.83;100.00;100636.47;5038495;28;20029;-79
2021/11/13 09:06:16;;;;;;;16.65;10.25;;;;;;;4.90;100.00;100638.31;5041102;28;20044;-77
2021/11/13 09:08:45;;;;;;;15.55;10.57;;;;;;;4.98;100.00;100635.84;5039642;28;20053;-78
2021/11/13 09:11:34;;;;;;;14.05;9.50;;;;;;;5.03;100.00;100641.06;5039786;28;20080;-79
2021/11/13 09:14:05;;;;;;;18.17;10.35;;;;;;;5.08;100.00;100637.66;5037020;28;20037;-82
2021/11/13 09:16:33;;;;;;;15.15;10.02;;;;;;;5.12;100.00;100636.88;5055426;28;20091;-83
2021/11/13 09:19:10;;;;;;;13.90;9.45;;;;;;;5.17;100.00;100647.31;5032009;28;20045;-84
2021/11/13 09:21:37;;;;;;;17.92;10.85;;;;;;;5.22;100.00;100639.59;5024908;28;20589;-78
2021/11/13 09:24:09;;;;;;;15.15;8.95;;;;;;;5.25;100.00;100642.22;5052328;22;20084;-78
2021/11/13 09:26:39;;;;;;;17.70;10.65;;;;;;;5.27;100.00;100641.38;5016231;28;20046;-78
2021/11/13 09:29:08;;;;;;;14.13;9.35;;;;;;;5.29;100.00;100644.00;5009262;28;20053;-83
2021/11/13 09:31:41;;;;;;;14.15;9.10;;;;;;;5.30;100.00;100638.81;5014272;28;21301;-81
2021/11/13 09:34:24;;;;;;;12.43;9.30;;;;;;;5.33;100.00;100650.09;5018399;28;20770;-79
2021/11/13 09:36:51;;;;;;;12.15;9.38;;;;;;;5.37;100.00;100655.38;5031171;28;20069;-82
2021/11/13 09:39:18;;;;;;;19.52;8.75;;;;;;;5.40;100.00;100658.00;5020983;28;20068;-81
2021/11/13 09:41:48;;;;;;;14.73;9.35;;;;;;;5.42;100.00;100652.81;5024407;28;20037;-82
2021/11/13 09:44:18;;;;;;;12.75;8.65;;;;;;;5.45;100.00;100650.28;5022157;28;20045;-81
2021/11/13 09:46:51;;;;;;;11.65;9.35;;;;;;;5.47;100.00;100645.94;5008078;28;20049;-82
2021/11/13 09:49:18;;;;;;;11.13;7.95;;;;;;;5.49;100.00;100645.97;5004754;28;20144;-78
2021/11/13 09:51:47;;;;;;;13.63;9.13;;;;;;;5.54;100.00;100646.88;5008240;28;20042;-78
2021/11/13 09:54:30;;;;;;;11.98;9.32;;;;;;;5.56;100.00;100646.06;5021155;28;20053;-79
2021/11/13 09:57:00;;;;;;;14.30;9.77;;;;;;;5.65;100.00;100641.84;5023421;28;20045;-80
2021/11/13 09:59:30;;;;;;;12.07;7.85;;;;;;;5.76;100.00;100646.28;5024229;28;20033;-81
2021/11/13 10:01:57;;;;;;;12.35;8.20;;;;;;;5.92;100.00;100643.84;5026046;28;20047;-83
2021/11/13 10:04:26;;;;;;;12.32;7.78;;;;;;;6.04;100.00;100645.72;5025284;28;20540;-81
2021/11/13 10:06:53;;;;;;;11.15;7.70;;;;;;;6.19;99.50;100658.88;5025061;28;20045;-84
2021/11/13 10:09:20;;;;;;;11.68;7.78;;;;;;;6.29;99.24;100655.47;4997011;28;20069;-83
2021/11/13 10:11:51;;;;;;;13.05;8.52;;;;;;;6.36;98.53;100652.94;5023349;28;20056;-79
2021/11/13 10:14:44;;;;;;;12.27;7.60;;;;;;;6.33;97.80;100661.56;5044291;28;20052;-82
2021/11/13 10:17:23;;;;;;;14.18;8.15;;;;;;;6.32;98.39;100669.38;5026535;28;20057;-81
2021/11/13 10:19:53;;;;;;;12.93;7.90;;;;;;;6.28;98.71;100669.34;5032909;28;20144;-80
2021/11/13 10:22:21;;;;;;;11.20;7.38;;;;;;;6.29;98.67;100658.06;5019297;28;20045;-81
2021/11/13 10:24:53;;;;;;;11.38;8.50;;;;;;;6.34;98.65;100655.53;5008423;28;20362;-80
2021/11/13 10:27:21;;;;;;;10.85;7.57;;;;;;;6.40;99.04;100650.38;5012669;28;20064;-77
2021/11/13 10:29:48;;;;;;;13.75;7.97;;;;;;;6.42;97.84;100656.44;5011205;28;20042;-84
2021/11/13 10:32:24;;;;;;;10.40;8.10;;;;;;;6.47;97.39;100659.09;5009535;28;20053;-77
2021/11/13 10:35:02;;;;;;;13.80;8.85;;;;;;;6.52;97.89;100660.00;5023466;28;20056;-82
2021/11/13 10:37:31;;;;;;;10.38;7.40;;;;;;;6.59;97.72;100655.72;5002758;28;20143;-81
2021/11/13 10:40:05;;;;;;;8.45;6.47;;;;;;;6.66;97.57;100651.44;5022126;28;20042;-82
2021/11/13 10:42:32;;;;;;;11.82;8.32;;;;;;;6.71;97.04;100663.59;5003839;28;20049;-84
2021/11/13 10:45:03;;;;;;;9.73;7.95;;;;;;;6.79;97.14;100661.03;5006292;28;20116;-79
2021/11/13 10:47:34;;;;;;;10.00;6.95;;;;;;;6.86;96.18;100668.06;5003365;28;20065;-78
2021/11/13 10:50:25;;;;;;;7.80;6.57;;;;;;;6.85;95.36;100661.09;5020309;28;20116;-85
2021/11/13 10:53:12;;;;;;;11.90;8.20;;;;;;;6.84;95.99;100659.34;5002438;28;20749;-81
2021/11/13 10:55:51;;;;;;;11.38;8.23;;;;;;;6.84;96.07;100663.69;4984653;28;20049;-81
2021/11/13 10:58:30;;;;;;;8.23;6.63;;;;;;;6.83;96.34;100668.03;4976492;28;20050;-83
2021/11/13 11:01:02;;;;;;;17.98;10.38;;;;;;;6.76;95.39;100664.50;5002445;28;20467;-80
2021/11/13 11:03:33;;;;;;;17.65;8.98;;;;;;;6.72;96.19;100661.88;5004825;28;20037;-81
2021/11/13 11:06:00;;;;;;;9.35;7.05;;;;;;;6.68;96.57;100663.59;4987209;28;20765;-81
2021/11/13 11:08:53;;;;;;;6.65;5.80;;;;;;;6.71;96.48;100663.59;5002017;28;20058;-85
2021/11/13 11:11:37;;;;;;;9.10;7.47;;;;;;;6.69;96.45;100661.84;4998734;28;20069;-81
2021/11/13 11:14:25;;;;;;;;;;;;;;;6.67;95.89;100664.44;5001769;28;20045;-80
2021/11/13 11:17:07;;;;;;;9.05;6.72;;;;;;;6.66;95.98;100667.03;5006019;28;19929;-81
2021/11/13 11:19:42;;;;;;;8.27;6.15;;;;;;;6.67;96.01;100671.38;4986540;28;20049;-80
2021/11/13 11:22:28;;;;;;;12.88;6.75;;;;;;;6.67;96.49;100663.56;5004905;28;20049;-85
2021/11/13 11:25:03;;;;;;;9.88;6.93;;;;;;;6.67;96.36;100661.84;5004304;28;20094;-80
2021/11/13 11:27:42;;;;;;;9.20;7.15;;;;;;;6.68;96.61;100668.78;5006068;28;20052;-79
2021/11/13 11:30:14;;;;;;;11.07;7.15;;;;;;;6.71;96.68;100671.41;4996698;28;20242;-82
2021/11/13 11:32:41;;;;;;;15.75;7.95;;;;;;;6.72;96.50;100673.16;5006585;28;20057;-80
2021/11/13 11:35:18;;;;;;;11.75;7.22;;;;;;;6.72;96.37;100672.28;5020140;28;20035;-79
2021/11/13 11:38:12;;;;;;;11.75;7.35;;;;;;;6.71;96.30;100668.78;5005247;28;20168;-80
2021/11/13 11:40:49;;;;;;;11.50;8.68;;;;;;;6.69;96.17;100675.75;4987171;28;20050;-81
2021/11/13 11:43:18;;;;;;;9.57;7.05;;;;;;;6.70;96.16;100671.41;5002568;28;20098;-82
2021/11/13 11:45:46;;;;;;;14.25;9.13;;;;;;;6.72;96.39;100670.53;5002006;28;20045;-78